Time;durP1;ratioP1;P1;durP2;ratioP2;P2;SDS_P1;SDS_P2;PMS_P1;PMS_P2;Temp;Humidity;BMP_temperature;BMP_pressure;BME280_temperature;BME280_humidity;BME280_pressure;Samples;Min_cycle;Max_cycle;Signal;HPM_P1;HPM_P2
2023/05/01 00:00:59;;;;;;;;;;;;;;;2.30;64.22;101944.31;107410;1256;124139;-83
2023/05/01 00:03:26;;;;;;;;;;;;;;;2.29;64.53;101941.15;107440;1256;73954;-83
2023/05/01 00:05:58;;;;;;;;;;;;;;;2.29;64.57;101938.85;107019;1257;124162;-84
2023/05/01 00:08:25;;;;;;;;;;;;;;;2.27;64.61;101936.84;106934;1256;72429;-81
2023/05/01 00:10:52;;;;;;;;;;;;;;;2.27;64.81;101932.11;107135;1257;62060;-83
2023/05/01 00:13:23;;;;;;;;;;;;;;;2.25;64.52;101930.42;107065;1256;124022;-83
2023/05/01 00:15:50;;;;;;;;;;;;;;;2.25;64.75;101928.46;106783;1256;290203;-83
2023/05/01 00:18:18;;;;;;;;;;;;;;;2.24;64.94;101931.38;106916;1257;124403;-83
2023/05/01 00:20:45;;;;;;;;;;;;;;;2.24;64.94;101931.36;106886;1256;72711;-83
2023/05/01 00:23:14;;;;;;;;;;;;;;;2.23;65.19;101929.92;107237;1256;61366;-83
2023/05/01 00:25:41;;;;;;;;;;;;;;;2.24;65.18;101933.77;107353;1256;124235;-83
2023/05/01 00:28:10;;;;;;;;;;;;;;;2.24;65.08;101934.84;107297;1256;75472;-83
2023/05/01 00:30:37;;;;;;;;;;;;;;;2.24;65.24;101933.27;107315;1256;124037;-83
2023/05/01 00:33:04;;;;;;;;;;;;;;;2.24;65.52;101935.02;107344;1257;71533;-83
2023/05/01 00:35:31;;;;;;;;;;;;;;;2.25;65.32;101931.77;107412;1256;62689;-83
2023/05/01 00:37:58;;;;;;;;;;;;;;;2.24;65.66;101930.89;107301;1256;123988;-84
2023/05/01 00:40:25;;;;;;;;;;;;;;;2.24;65.62;101930.48;107481;1256;75494;-82
2023/05/01 00:42:56;;;;;;;;;;;;;;;2.23;65.68;101929.91;107071;1259;125329;-83
2023/05/01 00:45:24;;;;;;;;;;;;;;;2.23;65.80;101927.67;107079;1257;71991;-82
2023/05/01 00:47:51;;;;;;;;;;;;;;;2.24;65.68;101923.59;107321;1257;124891;-82
2023/05/01 00:50:18;;;;;;;;;;;;;;;2.26;65.87;101926.52;107773;1256;60362;-83
2023/05/01 00:52:47;;;;;;;;;;;;;;;2.27;65.86;101920.68;107697;1257;73835;-84
2023/05/01 00:55:14;;;;;;;;;;;;;;;2.28;65.94;101917.35;107777;1257;124802;-84
2023/05/01 00:57:41;;;;;;;;;;;;;;;2.30;65.90;101915.44;107995;1259;72619;-84
2023/05/01 01:00:24;;;;;;;;;;;;;;;2.33;65.90;101914.10;107319;1257;125560;-83
2023/05/01 01:02:53;;;;;;;;;;;;;;;2.36;65.99;101917.60;107408;1257;60781;-82
2023/05/01 01:05:33;;;;;;;;;;;;;;;2.39;66.07;101913.48;107354;1257;76036;-81
2023/05/01 01:08:05;;;;;;;;;;;;;;;2.42;65.92;101910.95;107221;1259;124717;-81
2023/05/01 01:10:50;;;;;;;;;;;;;;;2.44;66.12;101916.84;107303;1256;72750;-81
2023/05/01 01:13:21;;;;;;;;;;;;;;;2.47;66.00;101919.43;107230;1258;125554;-81
2023/05/01 01:16:02;;;;;;;;;;;;;;;2.49;66.01;101921.39;107299;1257;63074;-81
2023/05/01 01:18:35;;;;;;;;;;;;;;;2.51;66.09;101925.48;107272;1256;124918;-81
2023/05/01 01:21:14;;;;;;;;;;;;;;;2.52;66.08;101925.42;107343;1256;66797;-83
2023/05/01 01:26:50;;;;;;;;;;;;;;;2.56;66.25;101924.32;107555;1256;60013;-82
2023/05/01 01:29:35;;;;;;;;;;;;;;;2.58;66.12;101926.52;107434;1257;62194;-83
2023/05/01 01:32:31;;;;;;;;;;;;;;;2.59;66.15;101926.08;107186;1258;124557;-82
2023/05/01 01:35:05;;;;;;;;;;;;;;;2.59;66.04;101924.04;107685;1256;66942;-84
2023/05/01 01:37:42;;;;;;;;;;;;;;;2.59;66.15;101923.67;107868;1257;124796;-83
2023/05/01 01:40:13;;;;;;;;;;;;;;;2.60;66.14;101919.20;107734;1262;62182;-83
2023/05/01 01:42:59;;;;;;;;;;;;;;;2.60;66.17;101919.58;107519;1262;124995;-84
2023/05/01 01:45:40;;;;;;;;;;;;;;;2.60;66.09;101918.34;107457;1257;73844;-84
2023/05/01 01:48:12;;;;;;;;;;;;;;;2.59;66.03;101917.59;107222;1257;125125;-82
2023/05/01 01:50:40;;;;;;;;;;;;;;;2.57;65.96;101917.95;107415;1256;71453;-82
2023/05/01 01:53:08;;;;;;;;;;;;;;;2.54;65.88;101916.48;107477;1258;62029;-82
2023/05/01 01:55:35;;;;;;;;;;;;;;;2.50;65.92;101917.23;107447;1256;125133;-81
2023/05/01 01:58:02;;;;;;;;;;;;;;;2.45;66.07;101912.55;108299;1259;74011;-81
2023/05/01 02:00:30;;;;;;;;;;;;;;;2.41;65.99;101916.05;107103;1258;124802;-81
2023/05/01 02:03:03;;;;;;;;;;;;;;;2.37;65.99;101910.87;107257;1259;71468;-83
2023/05/01 02:05:31;;;;;;;;;;;;;;;2.34;66.03;101907.40;107141;1258;60121;-82
2023/05/01 02:07:58;;;;;;;;;;;;;;;2.31;65.98;101907.53;107269;1259;124797;-81
2023/05/01 02:10:26;;;;;;;;;;;;;;;2.29;66.13;101902.14;107495;1260;75344;-83
2023/05/01 02:12:53;;;;;;;;;;;;;;;2.26;66.14;101899.67;107893;1257;124748;-83
2023/05/01 02:15:21;;;;;;;;;;;;;;;2.23;66.22;101899.08;107550;1257;71451;-81
2023/05/01 02:17:48;;;;;;;;;;;;;;;2.19;66.39;101900.67;107454;1257;124310;-81
2023/05/01 02:20:16;;;;;;;;;;;;;;;2.18;66.51;101900.25;107670;1256;62010;-83
2023/05/01 02:22:50;;;;;;;;;;;;;;;2.18;66.51;101896.30;107379;1256;75442;-81
2023/05/01 02:25:25;;;;;;;;;;;;;;;2.19;66.76;101894.04;107060;1258;124157;-83
2023/05/01 02:28:05;;;;;;;;;;;;;;;2.21;66.94;101890.23;107108;1257;72747;-81
2023/05/01 02:30:33;;;;;;;;;;;;;;;2.24;66.95;101889.80;107350;1256;63093;-83
2023/05/01 02:33:00;;;;;;;;;;;;;;;2.26;67.16;101889.09;107598;1256;61123;-83
2023/05/01 02:35:40;;;;;;;;;;;;;;;2.26;67.08;101886.33;107759;1256;74370;-83
2023/05/01 02:38:08;;;;;;;;;;;;;;;2.25;67.14;101881.97;107707;1260;65663;-83
2023/05/01 02:40:51;;;;;;;;;;;;;;;2.22;67.05;101883.40;107389;1256;72981;-83
2023/05/01 02:43:21;;;;;;;;;;;;;;;2.19;67.05;101880.57;107243;1256;124241;-83
2023/05/01 02:45:48;;;;;;;;;;;;;;;2.18;67.12;101878.56;107376;1256;60428;-82
2023/05/01 02:48:24;;;;;;;;;;;;;;;2.17;67.26;101875.02;107401;1256;124585;-81
2023/05/01 02:50:52;;;;;;;;;;;;;;;2.15;67.25;101874.09;107476;1256;65877;-81
2023/05/01 02:53:19;;;;;;;;;;;;;;;2.12;67.23;101874.40;107489;1257;71408;-83
2023/05/01 02:55:47;;;;;;;;;;;;;;;2.11;67.22;101874.83;107245;1256;124139;-81
2023/05/01 02:58:17;;;;;;;;;;;;;;;2.08;67.12;101877.35;107360;1257;62175;-81
2023/05/01 03:00:51;;;;;;;;;;;;;;;2.03;67.27;101872.93;107361;1257;124699;-82
2023/05/01 03:03:18;;;;;;;;;;;;;;;1.99;67.15;101877.33;107767;1256;65751;-82
2023/05/01 03:05:46;;;;;;;;;;;;;;;1.99;67.51;101874.17;107819;1256;71361;-81
2023/05/01 03:08:13;;;;;;;;;;;;;;;1.97;67.57;101871.15;107533;1258;124621;-82
2023/05/01 03:10:43;;;;;;;;;;;;;;;1.99;67.98;101864.35;107666;1256;62013;-81
2023/05/01 03:13:10;;;;;;;;;;;;;;;2.04;68.49;101866.67;107461;1256;124220;-81
2023/05/01 03:15:37;;;;;;;;;;;;;;;2.12;68.65;101865.05;107383;1259;65609;-81
2023/05/01 03:18:06;;;;;;;;;;;;;;;2.22;68.66;101869.21;107149;1261;124663;-81
2023/05/01 03:20:33;;;;;;;;;;;;;;;2.31;68.98;101866.42;107171;1256;60646;-81
2023/05/01 03:23:08;;;;;;;;;;;;;;;2.40;68.92;101869.23;107118;1257;61581;-83
2023/05/01 03:25:35;;;;;;;;;;;;;;;2.51;68.76;101865.49;107058;1258;124346;-83
2023/05/01 03:28:02;;;;;;;;;;;;;;;2.61;68.88;101864.17;107097;1259;67140;-82
2023/05/01 03:30:32;;;;;;;;;;;;;;;2.71;68.99;101864.40;106857;1256;124654;-81
2023/05/01 03:33:20;;;;;;;;;;;;;;;2.82;68.73;101865.44;106755;1260;62121;-83
2023/05/01 03:35:58;;;;;;;;;;;;;;;3.03;68.93;101865.23;107025;1259;60253;-81
2023/05/01 03:38:26;;;;;;;;;;;;;;;3.53;69.47;101859.64;107045;1256;73603;-81
2023/05/01 03:41:00;;;;;;;;;;;;;;;4.47;69.93;101855.84;107462;1259;65974;-81
2023/05/01 03:43:29;;;;;;;;;;;;;;;5.58;69.41;101849.45;107545;1256;124458;-82
2023/05/01 03:45:59;;;;;;;;;;;;;;;6.70;68.76;101846.80;107442;1263;60729;-84
2023/05/01 03:48:26;;;;;;;;;;;;;;;7.83;67.69;101839.66;107499;1256;124776;-82
2023/05/01 03:50:53;;;;;;;;;;;;;;;8.88;66.39;101835.43;107272;1257;74848;-82
2023/05/01 03:53:21;;;;;;;;;;;;;;;9.92;65.25;101828.95;107109;1257;67089;-83
2023/05/01 03:55:48;;;;;;;;;;;;;;;10.98;63.75;101829.27;106855;1258;124301;-83
2023/05/01 03:58:32;;;;;;;;;;;;;;;11.96;62.31;101826.93;107185;1259;63075;-83
2023/05/01 04:01:02;;;;;;;;;;;;;;;12.97;60.38;101820.16;107488;1261;125858;-83
2023/05/01 04:03:35;;;;;;;;;;;;;;;13.79;58.97;101822.71;107245;1256;75032;-82
2023/05/01 04:06:02;;;;;;;;;;;;;;;14.57;57.26;101819.91;107423;1260;125198;-82
2023/05/01 04:08:29;;;;;;;;;;;;;;;14.73;55.15;101819.63;107898;1259;71648;-82
2023/05/01 04:10:56;;;;;;;;;;;;;;;15.08;54.92;101824.02;107703;1256;61721;-82
2023/05/01 04:13:23;;;;;;;;;;;;;;;16.04;54.51;101822.38;107784;1256;124469;-84
2023/05/01 04:15:51;;;;;;;;;;;;;;;17.05;53.38;101819.94;107750;1256;75740;-83
2023/05/01 04:18:19;;;;;;;;;;;;;;;18.08;52.23;101820.09;107217;1257;124663;-83
2023/05/01 04:20:47;;;;;;;;;;;;;;;19.03;50.80;101818.49;107311;1256;72831;-83
2023/05/01 04:23:15;;;;;;;;;;;;;;;19.83;49.14;101819.33;107644;1256;62166;-83
2023/05/01 04:25:46;;;;;;;;;;;;;;;20.28;47.62;101815.89;107422;1256;124990;-84
2023/05/01 04:28:13;;;;;;;;;;;;;;;20.41;46.17;101813.42;107430;1260;75309;-83
2023/05/01 04:30:46;;;;;;;;;;;;;;;19.79;44.75;101816.80;107310;1257;125089;-83
2023/05/01 04:33:13;;;;;;;;;;;;;;;18.83;44.20;101816.03;107120;1256;72715;-82
2023/05/01 04:35:40;;;;;;;;;;;;;;;18.33;44.33;101821.45;107225;1256;62839;-82
2023/05/01 04:38:09;;;;;;;;;;;;;;;18.92;45.20;101821.23;107377;1256;124625;-82
2023/05/01 04:40:36;;;;;;;;;;;;;;;20.19;44.86;101821.21;107581;1256;74190;-82
2023/05/01 04:43:03;;;;;;;;;;;;;;;21.38;44.03;101822.48;107257;1256;124560;-82
2023/05/01 04:45:32;;;;;;;;;;;;;;;22.41;43.06;101824.35;107118;1257;70311;-82
2023/05/01 04:48:07;;;;;;;;;;;;;;;23.33;42.23;101823.20;107150;1257;124719;-82
2023/05/01 04:50:34;;;;;;;;;;;;;;;24.19;41.08;101823.42;107073;1261;61995;-82
2023/05/01 04:53:01;;;;;;;;;;;;;;;24.88;40.02;101827.92;107350;1256;75486;-85
2023/05/01 04:55:40;;;;;;;;;;;;;;;25.37;38.97;101826.14;107167;1257;124531;-84
2023/05/01 04:58:21;;;;;;;;;;;;;;;25.96;38.32;101829.78;107247;1262;71122;-84
2023/05/01 05:01:06;;;;;;;;;;;;;;;26.50;37.33;101826.23;107180;1261;124450;-84
2023/05/01 05:03:34;;;;;;;;;;;;;;;26.95;36.40;101831.05;107309;1256;61983;-84
2023/05/01 05:06:07;;;;;;;;;;;;;;;27.33;35.97;101828.45;107217;1256;124863;-84
2023/05/01 05:08:52;;;;;;;;;;;;;;;27.76;35.16;101826.87;107258;1256;67080;-85
2023/05/01 05:11:19;;;;;;;;;;;;;;;28.09;34.24;101831.83;107421;1257;64685;-85
2023/05/01 05:13:49;;;;;;;;;;;;;;;28.32;33.77;101825.88;107546;1256;124490;-85
2023/05/01 05:16:16;;;;;;;;;;;;;;;28.47;33.03;101825.57;107557;1256;61276;-84
2023/05/01 05:18:49;;;;;;;;;;;;;;;28.61;32.65;101825.13;107113;1256;125079;-84
2023/05/01 05:21:18;;;;;;;;;;;;;;;28.74;32.10;101824.54;107267;1257;62056;-83
2023/05/01 05:23:52;;;;;;;;;;;;;;;28.77;31.53;101826.42;107036;1256;62850;-83
2023/05/01 05:26:25;;;;;;;;;;;;;;;28.43;31.22;101827.70;107114;1256;124518;-83
2023/05/01 05:28:53;;;;;;;;;;;;;;;27.29;30.69;101834.64;107893;1256;60736;-80
2023/05/01 05:31:26;;;;;;;;;;;;;;;25.62;30.54;101837.66;107403;1256;125029;-81
2023/05/01 05:33:54;;;;;;;;;;;;;;;23.86;30.68;101842.30;107697;1257;65827;-81
2023/05/01 05:36:36;;;;;;;;;;;;;;;22.23;31.39;101843.22;107471;1257;125332;-81
2023/05/01 05:39:12;;;;;;;;;;;;;;;20.71;32.32;101841.62;107487;1256;60913;-83
2023/05/01 05:41:40;;;;;;;;;;;;;;;19.50;33.21;101842.65;107422;1256;62542;-83
2023/05/01 05:44:09;;;;;;;;;;;;;;;18.49;34.14;101845.22;107554;1256;124905;-83
2023/05/01 05:46:36;;;;;;;;;;;;;;;17.65;35.02;101848.85;107002;1257;66361;-84
2023/05/01 05:49:10;;;;;;;;;;;;;;;16.99;35.81;101849.98;107027;1256;124707;-85
2023/05/01 05:51:37;;;;;;;;;;;;;;;16.31;36.49;101851.95;107134;1263;62133;-84
2023/05/01 05:54:04;;;;;;;;;;;;;;;15.74;37.20;101852.05;107304;1260;124953;-81
2023/05/01 05:56:31;;;;;;;;;;;;;;;15.35;38.01;101850.11;107261;1262;76108;-81
2023/05/01 05:59:01;;;;;;;;;;;;;;;14.95;38.57;101847.04;107572;1260;68524;-81
2023/05/01 06:01:36;;;;;;;;;;;;;;;14.57;39.32;101846.96;107613;1257;126063;-82
2023/05/01 06:04:03;;;;;;;;;;;;;;;14.29;39.86;101845.48;107629;1257;60157;-82
2023/05/01 06:06:32;;;;;;;;;;;;;;;14.01;40.34;101847.16;107517;1257;124593;-81
2023/05/01 06:08:59;;;;;;;;;;;;;;;13.75;40.66;101843.80;107394;1257;75260;-81
2023/05/01 06:11:26;;;;;;;;;;;;;;;13.47;41.11;101842.23;107399;1260;67080;-84
2023/05/01 06:13:54;;;;;;;;;;;;;;;13.22;41.54;101844.80;107283;1259;124994;-81
2023/05/01 06:16:21;;;;;;;;;;;;;;;13.02;42.05;101839.02;107290;1259;62194;-80
2023/05/01 06:18:48;;;;;;;;;;;;;;;12.81;42.30;101841.52;107200;1260;124968;-81
2023/05/01 06:21:15;;;;;;;;;;;;;;;12.67;42.61;101843.34;107366;1262;75420;-79
2023/05/01 06:23:42;;;;;;;;;;;;;;;12.53;42.77;101844.45;107453;1259;67515;-83
2023/05/01 06:26:09;;;;;;;;;;;;;;;12.41;42.94;101844.21;107150;1258;125512;-83
2023/05/01 06:28:36;;;;;;;;;;;;;;;12.32;42.98;101843.54;107309;1258;62082;-83
2023/05/01 06:31:11;;;;;;;;;;;;;;;12.22;43.02;101844.41;107131;1257;124690;-83
2023/05/01 06:33:38;;;;;;;;;;;;;;;12.09;43.18;101849.42;107293;1259;74621;-83
2023/05/01 06:36:05;;;;;;;;;;;;;;;11.91;43.03;101846.27;107429;1258;65822;-83
2023/05/01 06:38:43;;;;;;;;;;;;;;;11.77;43.46;101846.45;107301;1259;71385;-83
2023/05/01 06:41:10;;;;;;;;;;;;;;;11.70;43.59;101846.86;107465;1260;62025;-86
2023/05/01 06:43:38;;;;;;;;;;;;;;;11.64;43.73;101842.27;107249;1259;124607;-84
2023/05/01 06:46:05;;;;;;;;;;;;;;;11.59;43.72;101839.41;107557;1258;74172;-84
2023/05/01 06:48:39;;;;;;;;;;;;;;;11.51;43.55;101842.63;107360;1257;124808;-82
2023/05/01 06:51:06;;;;;;;;;;;;;;;11.42;43.57;101842.80;107413;1258;71440;-79
2023/05/01 06:53:40;;;;;;;;;;;;;;;11.38;43.72;101843.35;107623;1258;60165;-81
2023/05/01 06:56:22;;;;;;;;;;;;;;;11.31;43.33;101836.08;107091;1263;124622;-82
2023/05/01 06:59:02;;;;;;;;;;;;;;;11.23;43.52;101836.09;107206;1257;75524;-83
2023/05/01 07:01:35;;;;;;;;;;;;;;;11.18;43.67;101834.49;107269;1257;124572;-82
2023/05/01 07:04:10;;;;;;;;;;;;;;;11.17;43.91;101835.14;107528;1257;71058;-84
2023/05/01 07:06:49;;;;;;;;;;;;;;;11.18;44.13;101835.55;107816;1258;124740;-83
2023/05/01 07:09:16;;;;;;;;;;;;;;;11.19;44.12;101830.84;107900;1258;60681;-83
2023/05/01 07:11:43;;;;;;;;;;;;;;;11.14;44.04;101828.00;108044;1256;75458;-82
2023/05/01 07:14:10;;;;;;;;;;;;;;;11.08;44.07;101829.33;107862;1259;124924;-83
2023/05/01 07:16:37;;;;;;;;;;;;;;;11.06;44.43;101825.23;107939;1257;72608;-84
2023/05/01 07:19:05;;;;;;;;;;;;;;;11.07;44.68;101828.28;107869;1261;124566;-84
2023/05/01 07:21:32;;;;;;;;;;;;;;;11.09;44.67;101827.64;107775;1261;62081;-85
2023/05/01 07:23:59;;;;;;;;;;;;;;;11.13;44.73;101830.05;107988;1257;75457;-83
2023/05/01 07:26:27;;;;;;;;;;;;;;;11.13;44.50;101828.30;107243;1257;124525;-83
2023/05/01 07:28:55;;;;;;;;;;;;;;;11.10;44.67;101830.64;107499;1261;70405;-83
2023/05/01 07:31:23;;;;;;;;;;;;;;;11.12;44.96;101830.54;107392;1260;124426;-83
2023/05/01 07:34:02;;;;;;;;;;;;;;;11.14;45.07;101829.56;107460;1261;62154;-82
2023/05/01 07:36:36;;;;;;;;;;;;;;;11.17;45.22;101826.00;107447;1256;125463;-83
2023/05/01 07:39:03;;;;;;;;;;;;;;;11.22;45.23;101828.66;107334;1257;67107;-84
2023/05/01 07:41:30;;;;;;;;;;;;;;;11.26;45.39;101828.46;107705;1258;72750;-82
2023/05/01 07:43:58;;;;;;;;;;;;;;;11.30;45.48;101821.08;107220;1260;124918;-82
2023/05/01 07:46:48;;;;;;;;;;;;;;;11.36;45.71;101823.27;107231;1259;60353;-82
2023/05/01 07:49:17;;;;;;;;;;;;;;;11.42;45.44;101823.46;107190;1259;124441;-83
2023/05/01 07:51:48;;;;;;;;;;;;;;;11.43;45.27;101824.39;107471;1258;67027;-82
2023/05/01 07:54:20;;;;;;;;;;;;;;;11.45;45.18;101822.71;107397;1259;124717;-85
2023/05/01 07:56:47;;;;;;;;;;;;;;;11.46;45.04;101821.02;108793;1256;60272;-81
2023/05/01 07:59:20;;;;;;;;;;;;;;;11.48;44.86;101821.05;107792;1260;62017;-82
2023/05/01 08:01:48;;;;;;;;;;;;;;;11.46;44.82;101818.02;107323;1262;124641;-83
2023/05/01 08:04:17;;;;;;;;;;;;;;;11.46;44.73;101818.19;107356;1257;65920;-83
2023/05/01 08:06:46;;;;;;;;;;;;;;;11.47;44.67;101813.83;107061;1261;124585;-82
2023/05/01 08:09:13;;;;;;;;;;;;;;;11.53;44.85;101814.04;107205;1261;60860;-82
2023/05/01 08:11:40;;;;;;;;;;;;;;;11.58;44.87;101810.73;107226;1257;61164;-80
2023/05/01 08:14:08;;;;;;;;;;;;;;;11.63;44.90;101810.40;107376;1262;124674;-81
2023/05/01 08:16:38;;;;;;;;;;;;;;;11.69;44.82;101812.89;107444;1261;67128;-81
2023/05/01 08:19:05;;;;;;;;;;;;;;;11.73;44.77;101809.52;107153;1263;124404;-80
2023/05/01 08:21:33;;;;;;;;;;;;;;;11.75;44.44;101807.69;107012;1257;62164;-80
2023/05/01 08:24:14;;;;;;;;;;;;;;;11.76;44.50;101805.77;107305;1258;62106;-83
2023/05/01 08:26:42;;;;;;;;;;;;;;;11.77;44.34;101807.73;107278;1262;75503;-82
2023/05/01 08:29:09;;;;;;;;;;;;;;;11.76;44.34;101803.14;107233;1257;68090;-81
2023/05/01 08:31:48;;;;;;;;;;;;;;;11.79;44.56;101802.36;107029;1268;125089;-82
2023/05/01 08:34:18;;;;;;;;;;;;;;;11.82;44.64;101801.79;107390;1257;62044;-82
2023/05/01 08:36:58;;;;;;;;;;;;;;;11.88;44.67;101800.41;107489;1261;124672;-83
2023/05/01 08:45:34;;;;;;;;;;;;;;;11.96;44.41;101802.84;107543;1258;72840;-84
2023/05/01 08:48:05;;;;;;;;;;;;;;;12.00;44.27;101802.98;107606;1260;60725;-85
2023/05/01 08:50:38;;;;;;;;;;;;;;;12.02;44.01;101800.77;107300;1262;124616;-82
2023/05/01 08:53:05;;;;;;;;;;;;;;;12.08;44.19;101797.97;107333;1258;75943;-81
2023/05/01 08:55:46;;;;;;;;;;;;;;;12.16;44.28;101794.06;107104;1257;124673;-85
2023/05/01 08:58:35;;;;;;;;;;;;;;;12.27;44.22;101793.36;107278;1257;72659;-84
2023/05/01 09:01:06;;;;;;;;;;;;;;;12.33;43.88;101793.58;107198;1257;124701;-84
2023/05/01 09:03:33;;;;;;;;;;;;;;;12.38;43.85;101788.80;107623;1257;61252;-82
2023/05/01 09:06:02;;;;;;;;;;;;;;;12.42;43.85;101790.39;107321;1259;75828;-82
2023/05/01 09:08:31;;;;;;;;;;;;;;;12.51;43.92;101786.10;107564;1258;125019;-82
2023/05/01 09:10:59;;;;;;;;;;;;;;;12.57;43.48;101780.31;107645;1257;72834;-85
2023/05/01 09:13:29;;;;;;;;;;;;;;;12.62;43.42;101781.89;107097;1263;124722;-86
2023/05/01 09:15:59;;;;;;;;;;;;;;;12.69;43.14;101782.80;107175;1257;62188;-86
2023/05/01 09:18:33;;;;;;;;;;;;;;;12.73;43.02;101783.13;107106;1257;124613;-86
2023/05/01 09:21:11;;;;;;;;;;;;;;;12.77;42.97;101776.92;107262;1258;66887;-85
2023/05/01 09:23:39;;;;;;;;;;;;;;;12.84;42.85;101768.17;107216;1259;72722;-86
2023/05/01 09:26:27;;;;;;;;;;;;;;;12.95;43.09;101760.56;107156;1259;124782;-86
2023/05/01 09:28:58;;;;;;;;;;;;;;;13.09;43.08;101763.30;107444;1257;60854;-85
2023/05/01 09:31:31;;;;;;;;;;;;;;;13.17;42.97;101759.52;107538;1257;123373;-85
2023/05/01 09:34:00;;;;;;;;;;;;;;;13.21;42.59;101760.67;107321;1258;67109;-85
2023/05/01 09:36:29;;;;;;;;;;;;;;;13.25;42.45;101759.90;107053;1262;124692;-81
2023/05/01 09:38:59;;;;;;;;;;;;;;;13.25;42.24;101756.37;107071;1257;61739;-81
2023/05/01 09:41:27;;;;;;;;;;;;;;;13.21;41.98;101751.16;107427;1257;62076;-82
2023/05/01 09:43:55;;;;;;;;;;;;;;;13.16;42.13;101743.96;107423;1257;124539;-82
2023/05/01 09:46:39;;;;;;;;;;;;;;;13.19;42.54;101747.74;107653;1261;67468;-86
2023/05/01 09:49:31;;;;;;;;;;;;;;;13.27;42.65;101744.10;107208;1257;124890;-85
2023/05/01 09:52:09;;;;;;;;;;;;;;;13.36;42.55;101742.48;107391;1257;60777;-87
2023/05/01 09:54:36;;;;;;;;;;;;;;;13.40;42.16;101733.61;107258;1257;125021;-86
2023/05/01 09:57:05;;;;;;;;;;;;;;;13.38;42.17;101731.41;107565;1257;73993;-85
2023/05/01 09:59:39;;;;;;;;;;;;;;;13.39;41.92;101731.27;107481;1258;65738;-85
2023/05/01 10:02:25;;;;;;;;;;;;;;;13.39;41.72;101727.73;107337;1258;124560;-85
2023/05/01 10:04:56;;;;;;;;;;;;;;;13.44;41.37;101726.81;107500;1257;61795;-85
2023/05/01 10:10:20;;;;;;;;;;;;;;;13.38;41.34;101718.35;107476;1258;73276;-86
2023/05/01 10:12:47;;;;;;;;;;;;;;;13.43;41.64;101719.02;107361;1261;124831;-86
2023/05/01 10:15:46;;;;;;;;;;;;;;;13.51;41.67;101719.63;107369;1261;72459;-85
2023/05/01 10:18:45;;;;;;;;;;;;;;;13.61;41.81;101715.67;107360;1257;124633;-85
2023/05/01 10:21:15;;;;;;;;;;;;;;;13.71;41.65;101708.52;107538;1257;62706;-82
2023/05/01 10:23:48;;;;;;;;;;;;;;;13.72;41.09;101703.79;107479;1257;75285;-83
2023/05/01 10:26:21;;;;;;;;;;;;;;;13.68;40.98;101701.23;107132;1258;125291;-82
2023/05/01 10:28:48;;;;;;;;;;;;;;;13.62;40.95;101697.89;107564;1257;73281;-83
2023/05/01 10:31:15;;;;;;;;;;;;;;;13.67;41.07;101693.79;107603;1261;124492;-82
2023/05/01 10:33:43;;;;;;;;;;;;;;;13.75;41.06;101691.20;107854;1257;60753;-83
2023/05/01 10:36:18;;;;;;;;;;;;;;;13.82;40.75;101692.42;108477;1257;124477;-83
2023/05/01 10:38:47;;;;;;;;;;;;;;;13.83;40.42;101683.29;107368;1258;66814;-82
2023/05/01 10:41:41;;;;;;;;;;;;;;;13.85;40.51;101679.98;107520;1257;72926;-82
2023/05/01 10:44:46;;;;;;;;;;;;;;;13.91;40.49;101671.34;107397;1257;124907;-82
2023/05/01 10:50:23;;;;;;;;;;;;;;;14.08;40.51;101660.63;107182;1259;124791;-82
2023/05/01 10:53:09;;;;;;;;;;;;;;;14.16;40.35;101657.83;107338;1257;65814;-82
2023/05/01 10:55:45;;;;;;;;;;;;;;;14.22;40.19;101648.63;107463;1260;124703;-85
2023/05/01 10:58:21;;;;;;;;;;;;;;;14.28;40.14;101649.13;107660;1257;60825;-85
2023/05/01 11:01:38;;;;;;;;;;;;;;;14.38;40.00;101653.95;107606;1263;125138;-85
2023/05/01 11:04:07;;;;;;;;;;;;;;;14.47;39.58;101647.64;106605;1267;75476;-82
2023/05/01 11:06:34;;;;;;;;;;;;;;;14.50;39.44;101647.02;106729;1266;124785;-86
2023/05/01 11:09:33;;;;;;;;;;;;;;;14.53;39.27;101643.19;106702;1270;72725;-85
2023/05/01 11:11:59;;;;;;;;;;;;;;;14.59;39.23;101635.58;106405;1265;61955;-84
2023/05/01 11:14:50;;;;;;;;;;;;;;;14.65;39.28;101632.72;106518;1266;124692;-86
2023/05/01 11:17:38;;;;;;;;;;;;;;;14.75;39.42;101626.05;106898;1264;74344;-86
2023/05/01 11:20:31;;;;;;;;;;;;;;;14.88;39.37;101629.50;107043;1267;125332;-87
2023/05/01 11:22:58;;;;;;;;;;;;;;;15.00;39.33;101623.55;106443;1270;71447;-86
2023/05/01 11:25:32;;;;;;;;;;;;;;;15.08;39.07;101624.27;106866;1266;124872;-87
2023/05/01 11:28:08;;;;;;;;;;;;;;;15.12;38.37;101621.16;107440;1265;62154;-86
2023/05/01 11:30:36;;;;;;;;;;;;;;;15.12;38.38;101624.70;106994;1264;124646;-86
2023/05/01 11:33:04;;;;;;;;;;;;;;;15.15;38.17;101619.99;107514;1265;65725;-85
2023/05/01 11:35:31;;;;;;;;;;;;;;;15.16;37.65;101616.29;107526;1260;73430;-86
2023/05/01 11:38:00;;;;;;;;;;;;;;;15.15;37.68;101614.87;107683;1257;125652;-87
2023/05/01 11:40:28;;;;;;;;;;;;;;;15.22;38.06;101614.65;107914;1257;61849;-86
2023/05/01 11:43:05;;;;;;;;;;;;;;;15.32;38.19;101607.41;107779;1257;124617;-87
2023/05/01 11:45:35;;;;;;;;;;;;;;;15.40;37.80;101596.95;107672;1257;67992;-87
2023/05/01 11:48:16;;;;;;;;;;;;;;;15.44;37.84;101592.77;107793;1257;72531;-86
2023/05/01 11:50:49;;;;;;;;;;;;;;;15.49;37.97;101584.03;107616;1258;62155;-87
2023/05/01 11:53:23;;;;;;;;;;;;;;;15.58;37.70;101584.89;107311;1257;61275;-86
2023/05/01 11:56:16;;;;;;;;;;;;;;;15.63;37.66;101585.52;107042;1261;124606;-86
2023/05/01 11:58:50;;;;;;;;;;;;;;;15.71;37.49;101580.89;107435;1257;66838;-86
2023/05/01 12:01:43;;;;;;;;;;;;;;;15.77;37.18;101575.89;107072;1260;124512;-86
2023/05/01 12:04:23;;;;;;;;;;;;;;;15.80;37.00;101570.98;107298;1257;61892;-86
2023/05/01 12:06:56;;;;;;;;;;;;;;;15.81;36.78;101569.40;107000;1258;124854;-85
2023/05/01 12:09:30;;;;;;;;;;;;;;;15.82;36.79;101563.41;107289;1257;76769;-87
2023/05/01 12:12:17;;;;;;;;;;;;;;;15.83;36.57;101563.41;107156;1257;66085;-86
2023/05/01 12:14:50;;;;;;;;;;;;;;;15.83;36.47;101561.83;107312;1257;73007;-86
2023/05/01 12:17:20;;;;;;;;;;;;;;;15.88;36.43;101557.65;107032;1257;343262;-86
2023/05/01 12:20:10;;;;;;;;;;;;;;;15.95;36.47;101557.74;107091;1257;125308;-86
2023/05/01 12:25:49;;;;;;;;;;;;;;;16.05;35.86;101548.54;107141;1260;124747;-86
2023/05/01 12:28:18;;;;;;;;;;;;;;;16.04;35.67;101543.38;107175;1258;72802;-86
2023/05/01 12:31:19;;;;;;;;;;;;;;;16.04;35.98;101542.13;107221;1256;124622;-86
2023/05/01 12:34:05;;;;;;;;;;;;;;;16.08;35.83;101538.86;107132;1256;63016;-85
2023/05/01 12:39:22;;;;;;;;;;;;;;;16.06;35.17;101526.06;107120;1256;65670;-86
2023/05/01 12:42:01;;;;;;;;;;;;;;;16.04;34.96;101517.01;107191;1257;72694;-86
2023/05/01 12:44:31;;;;;;;;;;;;;;;16.01;35.11;101513.60;107308;1257;125402;-84
2023/05/01 12:46:59;;;;;;;;;;;;;;;16.03;35.38;101513.80;107690;1258;60482;-83
2023/05/01 12:49:26;;;;;;;;;;;;;;;16.10;35.61;101507.01;107347;1261;125276;-83
2023/05/01 12:51:54;;;;;;;;;;;;;;;16.16;35.65;101502.30;107526;1256;66899;-84
2023/05/01 12:54:22;;;;;;;;;;;;;;;16.23;35.58;101499.75;107360;1263;125330;-84
2023/05/01 12:57:03;;;;;;;;;;;;;;;16.30;35.77;101495.60;107769;1257;62091;-84
2023/05/01 12:59:32;;;;;;;;;;;;;;;16.37;35.71;101488.05;107413;1257;61847;-84
2023/05/01 13:01:59;;;;;;;;;;;;;;;16.40;35.64;101484.39;107080;1262;76016;-83
2023/05/01 13:04:26;;;;;;;;;;;;;;;16.45;35.42;101481.26;107313;1257;67160;-83
2023/05/01 13:06:56;;;;;;;;;;;;;;;16.48;35.37;101476.86;107221;1257;124673;-83
2023/05/01 13:09:26;;;;;;;;;;;;;;;16.51;35.14;101472.12;107184;1260;62743;-83
2023/05/01 13:11:55;;;;;;;;;;;;;;;16.54;35.22;101468.09;107357;1260;62994;-83